createdAt,value
2023-04-29T00:00:16.386Z,67.30
2023-04-29T00:02:50.318Z,67.40
2023-04-29T00:05:18.189Z,67.20
2023-04-29T00:07:51.011Z,67.20
2023-04-29T00:10:17.811Z,67.10
2023-04-29T00:12:46.904Z,67.10
2023-04-29T00:15:13.542Z,67.10
2023-04-29T00:17:42.541Z,67.00
2023-04-29T00:20:10.321Z,67.10
2023-04-29T00:22:39.694Z,67.80
2023-04-29T00:25:11.299Z,67.30
2023-04-29T00:27:40.746Z,67.20
2023-04-29T00:30:08.463Z,67.20
2023-04-29T00:32:37.674Z,67.30
2023-04-29T00:35:04.575Z,67.50
2023-04-29T00:37:31.242Z,67.50
2023-04-29T00:40:02.584Z,67.60
2023-04-29T00:42:30.665Z,67.80
2023-04-29T00:45:00.287Z,67.90
2023-04-29T00:47:29.248Z,67.90
2023-04-29T00:49:55.948Z,68.00
2023-04-29T00:52:23.264Z,68.10
2023-04-29T00:54:55.496Z,68.20
2023-04-29T00:57:22.695Z,68.50
2023-04-29T00:59:50.048Z,68.30
2023-04-29T01:02:19.730Z,68.40
2023-04-29T01:04:46.982Z,68.40
2023-04-29T01:07:24.222Z,68.30
2023-04-29T01:10:06.846Z,68.60
2023-04-29T01:12:38.830Z,68.70
2023-04-29T01:15:25.314Z,68.30
2023-04-29T01:17:58.528Z,68.30
2023-04-29T01:20:26.474Z,68.50
2023-04-29T01:22:55.784Z,68.40
2023-04-29T01:25:24.734Z,68.50
2023-04-29T01:28:56.620Z,68.60
2023-04-29T01:31:58.680Z,68.80
2023-04-29T01:35:07.695Z,68.90
2023-04-29T01:37:47.316Z,68.70
2023-04-29T01:40:28.137Z,68.50
2023-04-29T01:43:05.592Z,68.30
2023-04-29T01:45:35.166Z,68.30
2023-04-29T01:48:04.599Z,68.40
2023-04-29T01:50:32.544Z,68.30
2023-04-29T01:53:07.927Z,68.40
2023-04-29T01:55:39.490Z,68.40
2023-04-29T01:58:18.854Z,68.40
2023-04-29T02:01:17.309Z,68.50
2023-04-29T02:03:46.603Z,68.50
2023-04-29T02:06:15.251Z,68.60
2023-04-29T02:08:42.101Z,68.60
2023-04-29T02:11:20.791Z,68.80
2023-04-29T02:13:47.526Z,68.90
2023-04-29T02:16:18.420Z,68.90
2023-04-29T02:18:58.759Z,69.10
2023-04-29T02:21:35.245Z,69.10
2023-04-29T02:24:06.715Z,69.60
2023-04-29T02:26:34.367Z,69.10
2023-04-29T02:29:06.242Z,69.30
2023-04-29T02:31:33.151Z,69.40
2023-04-29T02:34:00.417Z,69.40
2023-04-29T02:36:35.543Z,69.40
2023-04-29T02:39:04.477Z,69.50
2023-04-29T02:41:33.791Z,69.50
2023-04-29T02:44:05.008Z,69.50
2023-04-29T02:46:36.338Z,69.60
2023-04-29T02:49:05.757Z,69.50
2023-04-29T02:51:32.349Z,69.40
2023-04-29T02:53:59.075Z,69.40
2023-04-29T02:56:32.157Z,69.20
2023-04-29T02:59:04.021Z,69.00
2023-04-29T03:01:33.761Z,68.80
2023-04-29T03:04:00.554Z,68.90
2023-04-29T03:06:27.701Z,69.00
2023-04-29T03:08:59.118Z,69.00
2023-04-29T03:11:28.863Z,69.00
2023-04-29T03:13:57.813Z,68.90
2023-04-29T03:16:25.261Z,68.80
2023-04-29T03:18:54.384Z,68.70
2023-04-29T03:21:20.923Z,68.60
2023-04-29T03:23:51.726Z,68.70
2023-04-29T03:26:27.231Z,68.90
2023-04-29T03:28:56.423Z,68.90
2023-04-29T03:31:28.400Z,68.90
2023-04-29T03:33:57.971Z,68.90
2023-04-29T03:36:24.725Z,68.90
2023-04-29T03:39:10.250Z,69.00
2023-04-29T03:41:36.836Z,68.90
2023-04-29T03:44:03.974Z,69.00
2023-04-29T03:46:30.713Z,69.00
2023-04-29T03:49:04.028Z,69.10
2023-04-29T03:51:37.075Z,69.10
2023-04-29T03:54:16.310Z,69.40
2023-04-29T03:56:46.981Z,69.30
2023-04-29T03:59:16.244Z,69.30
2023-04-29T04:01:43.034Z,69.40
2023-04-29T04:04:11.955Z,69.70
2023-04-29T04:06:47.068Z,69.80
2023-04-29T04:09:13.685Z,69.90
2023-04-29T04:11:45.615Z,70.10
2023-04-29T04:14:12.845Z,70.20
2023-04-29T04:16:39.499Z,70.40
2023-04-29T04:19:06.317Z,69.80
2023-04-29T04:21:36.784Z,70.00
2023-04-29T04:24:09.347Z,70.20
2023-04-29T04:26:36.069Z,70.40
2023-04-29T04:29:08.172Z,70.40
2023-04-29T04:31:50.074Z,70.70
2023-04-29T04:34:24.558Z,71.20
2023-04-29T04:36:52.541Z,70.90
2023-04-29T04:39:22.100Z,70.90
2023-04-29T04:41:51.225Z,71.20
2023-04-29T04:44:24.306Z,71.20
2023-04-29T04:46:58.323Z,71.20
2023-04-29T04:49:49.628Z,71.10
2023-04-29T04:52:20.621Z,71.10
2023-04-29T04:54:50.170Z,71.20
2023-04-29T04:57:30.861Z,71.20
2023-04-29T05:00:05.557Z,71.30
2023-04-29T05:02:35.148Z,71.40
2023-04-29T05:05:03.967Z,71.30
2023-04-29T05:07:37.202Z,71.40
2023-04-29T05:10:06.581Z,71.40
2023-04-29T05:12:36.434Z,71.40
2023-04-29T05:15:04.378Z,71.30
2023-04-29T05:17:32.171Z,71.30
2023-04-29T05:19:59.184Z,71.20
2023-04-29T05:22:26.010Z,71.20
2023-04-29T05:24:54.067Z,71.20
2023-04-29T05:27:21.550Z,71.00
2023-04-29T05:29:48.254Z,71.00
2023-04-29T05:32:15.273Z,71.10
2023-04-29T05:34:45.377Z,71.30
2023-04-29T05:37:12.016Z,71.30
2023-04-29T05:39:56.074Z,71.30
2023-04-29T05:42:24.831Z,71.00
2023-04-29T05:44:51.790Z,71.20
2023-04-29T05:47:20.629Z,71.20
2023-04-29T05:49:48.015Z,71.20
2023-04-29T05:52:14.690Z,72.00
2023-04-29T05:54:48.058Z,71.30
2023-04-29T05:57:17.127Z,71.20
2023-04-29T05:59:44.378Z,71.30
2023-04-29T06:02:12.227Z,71.30
2023-04-29T06:04:43.472Z,71.40
2023-04-29T06:07:21.230Z,71.50
2023-04-29T06:09:51.239Z,71.50
2023-04-29T06:12:18.001Z,71.60
2023-04-29T06:14:46.622Z,71.60
2023-04-29T06:17:13.619Z,71.30
2023-04-29T06:19:40.725Z,71.20
2023-04-29T06:22:09.467Z,71.20
2023-04-29T06:24:38.214Z,71.10
2023-04-29T06:27:06.391Z,71.00
2023-04-29T06:29:33.073Z,71.10
2023-04-29T06:31:59.683Z,71.10
2023-04-29T06:34:26.661Z,70.90
2023-04-29T06:37:21.908Z,70.90
2023-04-29T06:40:08.015Z,71.00
2023-04-29T06:42:44.147Z,70.90
2023-04-29T06:45:33.978Z,70.90
2023-04-29T06:48:09.380Z,70.80
2023-04-29T06:50:58.394Z,70.80
2023-04-29T06:53:25.024Z,71.20
2023-04-29T06:55:51.771Z,70.90
2023-04-29T06:58:20.690Z,70.60
2023-04-29T07:00:48.728Z,70.50
2023-04-29T07:03:16.646Z,70.50
2023-04-29T07:05:45.389Z,70.30
2023-04-29T07:08:13.361Z,70.30
2023-04-29T07:10:41.244Z,70.50
2023-04-29T07:13:08.090Z,70.40
2023-04-29T07:15:35.724Z,70.50
2023-04-29T07:18:05.221Z,70.40
2023-04-29T07:20:32.230Z,70.40
2023-04-29T07:22:59.278Z,70.40
2023-04-29T07:25:27.672Z,70.30
2023-04-29T07:27:56.415Z,70.40
2023-04-29T07:30:25.110Z,70.40
2023-04-29T07:32:51.932Z,70.20
2023-04-29T07:35:22.298Z,70.50
2023-04-29T07:37:49.072Z,70.60
2023-04-29T07:40:15.826Z,70.60
2023-04-29T07:42:43.448Z,70.60
2023-04-29T07:45:12.739Z,70.70
2023-04-29T07:47:42.671Z,70.60
2023-04-29T07:50:09.730Z,70.80
2023-04-29T07:52:38.948Z,70.80
2023-04-29T07:55:05.992Z,70.80
2023-04-29T07:57:32.803Z,70.90
2023-04-29T07:59:59.634Z,70.90
2023-04-29T08:02:26.394Z,71.00
2023-04-29T08:04:56.106Z,71.20
2023-04-29T08:07:23.277Z,71.20
2023-04-29T08:09:51.271Z,71.20
2023-04-29T08:12:17.892Z,71.30
2023-04-29T08:14:44.465Z,71.00
2023-04-29T08:17:11.334Z,71.20
2023-04-29T08:19:38.013Z,71.00
2023-04-29T08:22:05.048Z,70.90
2023-04-29T08:24:33.531Z,70.70
2023-04-29T08:27:00.227Z,70.60
2023-04-29T08:29:26.888Z,70.30
2023-04-29T08:31:53.671Z,70.00
2023-04-29T08:34:20.338Z,70.10
2023-04-29T08:36:46.911Z,70.10
2023-04-29T08:39:15.638Z,70.20
2023-04-29T08:41:45.389Z,70.00
2023-04-29T08:44:11.933Z,69.30
2023-04-29T08:46:39.262Z,68.80
2023-04-29T08:49:06.822Z,69.20
2023-04-29T08:51:34.569Z,68.40
2023-04-29T08:54:01.221Z,67.90
2023-04-29T08:56:30.838Z,67.80
2023-04-29T08:58:58.945Z,67.00
2023-04-29T09:01:28.656Z,66.50
2023-04-29T09:04:21.360Z,65.90
2023-04-29T09:06:48.819Z,65.80
2023-04-29T09:09:15.939Z,65.50
2023-04-29T09:11:42.540Z,65.00
2023-04-29T09:14:09.397Z,65.00
2023-04-29T09:16:38.148Z,64.90
2023-04-29T09:19:07.184Z,65.10
2023-04-29T09:21:35.988Z,65.00
2023-04-29T09:24:03.751Z,64.80
2023-04-29T09:26:45.360Z,65.00
2023-04-29T09:29:18.200Z,64.60
2023-04-29T09:31:45.990Z,64.50
2023-04-29T09:34:14.112Z,64.80
2023-04-29T09:36:47.825Z,64.70
2023-04-29T09:39:19.220Z,64.90
2023-04-29T09:41:54.787Z,64.90
2023-04-29T09:44:23.247Z,64.50
2023-04-29T09:46:57.713Z,64.50
2023-04-29T09:49:29.333Z,64.70
2023-04-29T09:51:57.086Z,65.00
2023-04-29T09:54:28.384Z,65.00
2023-04-29T09:56:56.087Z,65.00
2023-04-29T09:59:23.607Z,65.20
2023-04-29T10:01:54.341Z,65.20
2023-04-29T10:04:23.341Z,65.20
2023-04-29T10:06:54.839Z,66.00
2023-04-29T10:09:23.329Z,65.50
2023-04-29T10:11:52.563Z,65.50
2023-04-29T10:14:21.643Z,65.50
2023-04-29T10:17:09.877Z,65.70
2023-04-29T10:19:47.338Z,65.60
2023-04-29T10:22:26.757Z,65.60
2023-04-29T10:24:55.448Z,65.30
2023-04-29T10:27:24.846Z,65.30
2023-04-29T10:29:54.456Z,65.40
2023-04-29T10:32:22.288Z,65.60
2023-04-29T10:34:54.601Z,65.70
2023-04-29T10:37:21.429Z,65.50
2023-04-29T10:39:56.686Z,65.60
2023-04-29T10:42:59.406Z,65.50
2023-04-29T10:45:31.629Z,65.30
2023-04-29T10:48:10.390Z,65.30
2023-04-29T10:50:48.850Z,65.80
2023-04-29T10:53:17.016Z,65.40
2023-04-29T10:55:47.490Z,65.40
2023-04-29T10:58:37.125Z,65.00
2023-04-29T11:01:04.779Z,64.60
2023-04-29T11:03:48.759Z,64.80
2023-04-29T11:06:16.497Z,64.10
2023-04-29T11:08:43.356Z,64.30
2023-04-29T11:11:10.028Z,64.30
2023-04-29T11:13:40.532Z,64.40
2023-04-29T11:16:11.434Z,64.10
2023-04-29T11:19:10.357Z,63.50
2023-04-29T11:21:37.570Z,63.50
2023-04-29T11:24:06.370Z,63.60
2023-04-29T11:26:35.668Z,63.40
2023-04-29T11:29:02.462Z,63.80
2023-04-29T11:31:32.972Z,63.70
2023-04-29T11:34:00.483Z,63.40
2023-04-29T11:36:27.466Z,63.20
2023-04-29T11:38:54.153Z,63.30
2023-04-29T11:41:22.296Z,62.80
2023-04-29T11:43:56.945Z,61.90
2023-04-29T11:46:23.642Z,61.40
2023-04-29T11:48:50.641Z,61.90
2023-04-29T11:51:19.016Z,61.90
2023-04-29T11:53:45.769Z,61.20
2023-04-29T11:56:12.689Z,61.10
2023-04-29T11:58:43.306Z,61.20
2023-04-29T12:01:09.934Z,60.80
2023-04-29T12:03:36.858Z,60.60
2023-04-29T12:06:08.309Z,61.30
2023-04-29T12:08:35.060Z,60.70
2023-04-29T12:11:01.738Z,60.20
2023-04-29T12:13:30.416Z,60.20
2023-04-29T12:15:58.698Z,59.20
2023-04-29T12:18:27.995Z,59.10
2023-04-29T12:20:55.938Z,58.60
2023-04-29T12:23:27.236Z,58.30
2023-04-29T12:25:55.261Z,58.30
2023-04-29T12:28:22.521Z,58.70
2023-04-29T12:30:57.827Z,58.40
2023-04-29T12:33:29.263Z,58.50
2023-04-29T12:35:57.983Z,58.00
2023-04-29T12:38:30.033Z,57.80
2023-04-29T12:40:58.825Z,56.60
2023-04-29T12:43:33.530Z,56.70
2023-04-29T12:46:07.953Z,56.80
2023-04-29T12:48:39.218Z,55.00
2023-04-29T12:51:08.178Z,54.90
2023-04-29T12:53:34.805Z,54.60
2023-04-29T12:56:01.805Z,54.60
2023-04-29T12:58:32.836Z,55.00
2023-04-29T13:00:59.681Z,54.10
2023-04-29T13:03:26.798Z,53.90
2023-04-29T13:05:54.626Z,53.60
2023-04-29T13:08:21.336Z,54.10
2023-04-29T13:10:48.021Z,52.70
2023-04-29T13:13:14.618Z,51.80
2023-04-29T13:15:41.230Z,51.10
2023-04-29T13:18:08.058Z,50.20
2023-04-29T13:20:41.048Z,49.80
2023-04-29T13:23:09.493Z,49.00
2023-04-29T13:25:36.377Z,48.70
2023-04-29T13:28:05.065Z,48.90
2023-04-29T13:30:31.785Z,49.50
2023-04-29T13:33:04.387Z,49.60
2023-04-29T13:35:39.882Z,50.00
2023-04-29T13:38:06.745Z,50.40
2023-04-29T13:40:38.290Z,51.00
2023-04-29T13:43:09.597Z,51.10
2023-04-29T13:45:39.889Z,51.50
2023-04-29T13:48:26.149Z,51.90
2023-04-29T13:54:02.878Z,52.40
2023-04-29T13:59:31.637Z,53.30
2023-04-29T14:03:58.714Z,53.50
2023-04-29T14:06:25.523Z,53.40
2023-04-29T14:08:52.088Z,53.50
2023-04-29T14:11:19.460Z,53.70
2023-04-29T14:13:46.036Z,54.30
2023-04-29T14:16:12.860Z,53.80
2023-04-29T14:18:39.489Z,53.70
2023-04-29T14:21:06.144Z,53.90
2023-04-29T14:23:32.727Z,53.30
2023-04-29T14:26:16.602Z,53.80
2023-04-29T14:28:45.872Z,53.40
2023-04-29T14:31:13.746Z,53.80
2023-04-29T14:33:40.891Z,53.20
2023-04-29T14:36:07.943Z,53.00
2023-04-29T14:38:34.519Z,52.80
2023-04-29T14:41:01.118Z,53.40
2023-04-29T14:43:28.751Z,53.40
2023-04-29T14:45:55.846Z,53.40
2023-04-29T14:48:22.503Z,53.20
2023-04-29T14:50:49.248Z,53.40
2023-04-29T14:53:16.994Z,53.40
2023-04-29T14:55:43.716Z,53.00
2023-04-29T14:58:10.354Z,53.20
2023-04-29T15:00:37.067Z,52.80
2023-04-29T15:03:05.046Z,52.90
2023-04-29T15:05:31.707Z,53.20
2023-04-29T15:08:00.093Z,53.00
2023-04-29T15:10:27.193Z,52.80
2023-04-29T15:12:54.289Z,51.60
2023-04-29T15:15:21.744Z,52.00
2023-04-29T15:17:48.591Z,51.50
2023-04-29T15:20:15.554Z,51.10
2023-04-29T15:22:42.234Z,50.60
2023-04-29T15:25:12.049Z,50.70
2023-04-29T15:27:41.454Z,51.10
2023-04-29T15:30:08.529Z,51.20
2023-04-29T15:32:35.153Z,51.40
2023-04-29T15:35:03.435Z,51.10
2023-04-29T15:37:30.620Z,51.20
2023-04-29T15:40:01.821Z,51.40
2023-04-29T15:42:28.621Z,50.80
2023-04-29T15:44:55.963Z,51.70
2023-04-29T15:47:22.811Z,51.50
2023-04-29T15:49:51.761Z,51.50
2023-04-29T15:52:18.616Z,51.30
2023-04-29T15:54:45.201Z,51.60
2023-04-29T15:57:11.780Z,52.20
2023-04-29T15:59:38.322Z,52.50
2023-04-29T16:02:10.192Z,52.20
2023-04-29T16:04:37.695Z,52.00
2023-04-29T16:07:05.315Z,50.90
2023-04-29T16:09:35.649Z,50.40
2023-04-29T16:12:02.347Z,50.30
2023-04-29T16:14:30.429Z,49.60
2023-04-29T16:16:57.067Z,49.10
2023-04-29T16:19:23.733Z,49.10
2023-04-29T16:21:50.289Z,48.90
2023-04-29T16:24:16.894Z,49.20
2023-04-29T16:26:43.485Z,49.50
2023-04-29T16:29:12.206Z,48.80
2023-04-29T16:31:39.376Z,48.80
2023-04-29T16:34:06.034Z,48.70
2023-04-29T16:36:32.824Z,48.40
2023-04-29T16:38:59.490Z,48.10
2023-04-29T16:41:26.088Z,47.70
2023-04-29T16:43:53.855Z,47.70
2023-04-29T16:46:20.633Z,47.80
2023-04-29T16:48:48.293Z,47.50
2023-04-29T16:51:14.848Z,47.60
2023-04-29T16:53:41.408Z,48.10
2023-04-29T16:56:08.381Z,48.10
2023-04-29T16:58:34.970Z,48.00
2023-04-29T17:01:01.710Z,48.20
2023-04-29T17:03:29.314Z,48.60
2023-04-29T17:05:56.202Z,49.20
2023-04-29T17:08:23.987Z,49.40
2023-04-29T17:10:53.775Z,49.50
2023-04-29T17:13:20.650Z,50.20
2023-04-29T17:15:47.781Z,50.70
2023-04-29T17:18:14.386Z,50.20
2023-04-29T17:20:41.984Z,50.20
2023-04-29T17:23:08.951Z,50.50
2023-04-29T17:25:37.901Z,50.00
2023-04-29T17:28:06.029Z,49.20
2023-04-29T17:30:35.919Z,49.80
2023-04-29T17:33:05.598Z,50.10
2023-04-29T17:35:35.545Z,50.50
2023-04-29T17:38:02.230Z,50.10
2023-04-29T17:40:28.784Z,51.00
2023-04-29T17:42:55.428Z,50.60
2023-04-29T17:45:24.179Z,50.80
2023-04-29T17:47:51.106Z,51.10
2023-04-29T17:50:17.986Z,51.70
2023-04-29T17:52:44.676Z,52.60
2023-04-29T17:55:16.279Z,52.70
2023-04-29T17:57:45.209Z,52.80
2023-04-29T18:00:12.246Z,52.70
2023-04-29T18:02:39.425Z,53.10
2023-04-29T18:05:08.738Z,53.90
2023-04-29T18:07:35.564Z,54.20
2023-04-29T18:10:02.162Z,54.60
2023-04-29T18:12:28.819Z,55.60
2023-04-29T18:14:55.733Z,55.60
2023-04-29T18:17:22.325Z,55.90
2023-04-29T18:19:51.732Z,56.30
2023-04-29T18:22:18.377Z,56.50
2023-04-29T18:24:46.071Z,56.90
2023-04-29T18:27:12.699Z,56.90
2023-04-29T18:29:39.318Z,57.20
2023-04-29T18:32:08.015Z,57.30
2023-04-29T18:34:34.918Z,57.50
2023-04-29T18:37:03.779Z,57.60
2023-04-29T18:39:30.722Z,57.80
2023-04-29T18:41:57.943Z,58.00
2023-04-29T18:44:26.101Z,58.20
2023-04-29T18:46:52.874Z,58.30
2023-04-29T18:49:19.560Z,58.40
2023-04-29T18:51:46.782Z,58.60
2023-04-29T18:54:18.253Z,58.70
2023-04-29T18:56:49.620Z,59.00
2023-04-29T18:59:19.154Z,59.20
2023-04-29T19:01:47.053Z,59.20
2023-04-29T19:04:14.000Z,59.50
2023-04-29T19:06:41.512Z,59.60
2023-04-29T19:09:08.353Z,59.70
2023-04-29T19:11:34.955Z,60.00
2023-04-29T19:14:01.597Z,60.20
2023-04-29T19:16:28.273Z,60.40
2023-04-29T19:18:54.834Z,60.50
2023-04-29T19:21:21.738Z,60.70
2023-04-29T19:23:48.291Z,60.80
2023-04-29T19:26:14.919Z,61.10
2023-04-29T19:28:41.552Z,61.10
2023-04-29T19:31:08.160Z,61.10
2023-04-29T19:33:35.415Z,61.20
2023-04-29T19:36:04.944Z,62.10
2023-04-29T19:38:31.533Z,61.50
2023-04-29T19:40:58.188Z,61.50
2023-04-29T19:43:24.823Z,61.80
2023-04-29T19:45:51.398Z,61.90
2023-04-29T19:48:19.296Z,62.00
2023-04-29T19:50:46.105Z,62.10
2023-04-29T19:53:12.964Z,62.30
2023-04-29T19:55:39.951Z,62.20
2023-04-29T19:58:07.309Z,62.40
2023-04-29T20:00:34.304Z,62.50
2023-04-29T20:03:03.558Z,63.20
2023-04-29T20:05:32.671Z,62.70
2023-04-29T20:08:01.606Z,62.70
2023-04-29T20:10:29.929Z,62.80
2023-04-29T20:12:56.828Z,62.80
2023-04-29T20:15:31.319Z,62.80
2023-04-29T20:17:58.042Z,62.80
2023-04-29T20:20:26.054Z,62.70
2023-04-29T20:22:59.943Z,62.60
2023-04-29T20:25:28.360Z,62.60
2023-04-29T20:27:54.993Z,62.30
2023-04-29T20:30:21.588Z,62.00
2023-04-29T20:32:48.264Z,61.70
2023-04-29T20:35:15.738Z,61.50
2023-04-29T20:37:42.467Z,61.30
2023-04-29T20:40:09.686Z,61.10
2023-04-29T20:42:36.374Z,61.00
2023-04-29T20:45:03.294Z,60.90
2023-04-29T20:47:30.045Z,60.90
2023-04-29T20:50:00.698Z,60.80
2023-04-29T20:52:28.231Z,60.80
2023-04-29T20:54:54.864Z,60.80
2023-04-29T20:57:21.547Z,61.60
2023-04-29T20:59:48.305Z,61.20
2023-04-29T21:02:15.451Z,61.30
2023-04-29T21:04:42.040Z,61.60
2023-04-29T21:07:08.674Z,61.90
2023-04-29T21:09:35.726Z,62.20
2023-04-29T21:12:05.185Z,62.40
2023-04-29T21:14:32.743Z,62.50
2023-04-29T21:17:01.620Z,62.50
2023-04-29T21:19:28.190Z,62.70
2023-04-29T21:21:54.772Z,62.70
2023-04-29T21:24:21.367Z,62.70
2023-04-29T21:26:50.099Z,62.70
2023-04-29T21:29:16.664Z,62.70
2023-04-29T21:31:43.304Z,62.80
2023-04-29T21:34:09.953Z,62.80
2023-04-29T21:36:36.629Z,62.70
2023-04-29T21:39:06.276Z,63.00
2023-04-29T21:41:45.423Z,63.20
2023-04-29T21:44:15.393Z,63.50
2023-04-29T21:46:42.288Z,63.50
2023-04-29T21:49:12.278Z,63.30
2023-04-29T21:51:38.866Z,63.40
2023-04-29T21:54:08.253Z,63.40
2023-04-29T21:56:35.733Z,63.30
2023-04-29T21:59:02.457Z,63.30
2023-04-29T22:01:47.398Z,63.00
2023-04-29T22:04:16.549Z,62.90
2023-04-29T22:06:43.384Z,62.50
2023-04-29T22:09:10.355Z,62.70
2023-04-29T22:11:39.125Z,62.60
2023-04-29T22:14:05.755Z,62.40
2023-04-29T22:16:34.979Z,62.10
2023-04-29T22:19:03.929Z,61.90
2023-04-29T22:21:33.514Z,61.60
2023-04-29T22:24:02.554Z,61.40
2023-04-29T22:26:29.269Z,61.20
2023-04-29T22:28:56.746Z,61.00
2023-04-29T22:31:23.400Z,60.90
2023-04-29T22:33:50.786Z,60.80
2023-04-29T22:36:17.371Z,60.60
2023-04-29T22:38:43.958Z,60.60
2023-04-29T22:41:11.653Z,60.60
2023-04-29T22:43:38.409Z,60.60
2023-04-29T22:46:05.060Z,60.60
2023-04-29T22:48:31.755Z,60.60
2023-04-29T22:50:59.364Z,60.60
2023-04-29T22:53:26.293Z,60.60
2023-04-29T22:55:54.480Z,60.60
2023-04-29T22:58:24.404Z,60.60
2023-04-29T23:00:53.408Z,60.60
2023-04-29T23:03:20.414Z,60.70
2023-04-29T23:05:47.071Z,60.80
2023-04-29T23:08:13.890Z,60.70
2023-04-29T23:10:40.607Z,60.70
2023-04-29T23:13:07.257Z,60.90
2023-04-29T23:15:33.844Z,61.00
2023-04-29T23:18:00.514Z,61.00
2023-04-29T23:20:27.275Z,61.10
2023-04-29T23:22:53.835Z,61.10
2023-04-29T23:25:20.415Z,61.20
2023-04-29T23:27:48.262Z,61.30
2023-04-29T23:30:14.844Z,61.40
2023-04-29T23:32:43.971Z,61.30
2023-04-29T23:35:13.702Z,61.40
2023-04-29T23:37:40.256Z,61.40
2023-04-29T23:40:07.373Z,61.50
2023-04-29T23:42:38.372Z,61.80
2023-04-29T23:45:06.272Z,61.90
2023-04-29T23:47:32.915Z,61.90
2023-04-29T23:49:59.529Z,62.00
2023-04-29T23:52:26.255Z,62.10
2023-04-29T23:54:52.835Z,62.20
2023-04-29T23:57:19.429Z,62.10
2023-04-29T23:59:46.097Z,62.00
